sensor_id;sensor_type;location;lat;lon;timestamp;P1;durP1;ratioP1;P2;durP2;ratioP2
4963;SDS011;2497;47.410;9.740;2023-03-01T00:01:40;44.57;;;15.93;;
4963;SDS011;2497;47.410;9.740;2023-03-01T00:10:48;36.70;;;13.87;;
4963;SDS011;2497;47.410;9.740;2023-03-01T00:13:16;32.70;;;13.37;;
4963;SDS011;2497;47.410;9.740;2023-03-01T00:15:43;31.57;;;14.37;;
4963;SDS011;2497;47.410;9.740;2023-03-01T00:18:12;32.37;;;14.83;;
4963;SDS011;2497;47.410;9.740;2023-03-01T00:20:39;35.47;;;14.70;;
4963;SDS011;2497;47.410;9.740;2023-03-01T00:23:06;32.60;;;14.60;;
4963;SDS011;2497;47.410;9.740;2023-03-01T00:25:33;26.43;;;13.57;;
4963;SDS011;2497;47.410;9.740;2023-03-01T00:28:09;29.73;;;12.57;;
4963;SDS011;2497;47.410;9.740;2023-03-01T00:30:36;37.07;;;14.27;;
4963;SDS011;2497;47.410;9.740;2023-03-01T00:33:03;32.93;;;13.87;;
4963;SDS011;2497;47.410;9.740;2023-03-01T00:35:31;27.13;;;11.40;;
4963;SDS011;2497;47.410;9.740;2023-03-01T00:37:59;23.23;;;12.37;;
4963;SDS011;2497;47.410;9.740;2023-03-01T00:40:27;27.13;;;10.93;;
4963;SDS011;2497;47.410;9.740;2023-03-01T00:42:59;19.77;;;8.93;;
4963;SDS011;2497;47.410;9.740;2023-03-01T00:45:27;24.70;;;10.50;;
4963;SDS011;2497;47.410;9.740;2023-03-01T00:47:56;24.60;;;10.77;;
4963;SDS011;2497;47.410;9.740;2023-03-01T00:50:25;27.23;;;10.57;;
4963;SDS011;2497;47.410;9.740;2023-03-01T00:52:52;22.90;;;10.87;;
4963;SDS011;2497;47.410;9.740;2023-03-01T00:55:20;31.07;;;11.57;;
4963;SDS011;2497;47.410;9.740;2023-03-01T00:57:47;22.27;;;9.73;;
4963;SDS011;2497;47.410;9.740;2023-03-01T01:00:14;20.63;;;9.03;;
4963;SDS011;2497;47.410;9.740;2023-03-01T01:02:43;18.80;;;7.73;;
4963;SDS011;2497;47.410;9.740;2023-03-01T01:05:11;18.63;;;7.80;;
4963;SDS011;2497;47.410;9.740;2023-03-01T01:07:38;24.03;;;9.00;;
4963;SDS011;2497;47.410;9.740;2023-03-01T01:10:06;20.17;;;9.57;;
4963;SDS011;2497;47.410;9.740;2023-03-01T01:12:37;25.23;;;10.63;;
4963;SDS011;2497;47.410;9.740;2023-03-01T01:15:05;23.30;;;10.27;;
4963;SDS011;2497;47.410;9.740;2023-03-01T01:17:33;21.77;;;9.57;;
4963;SDS011;2497;47.410;9.740;2023-03-01T01:20:01;26.07;;;9.40;;
4963;SDS011;2497;47.410;9.740;2023-03-01T01:22:29;22.90;;;9.37;;
4963;SDS011;2497;47.410;9.740;2023-03-01T01:24:56;28.13;;;9.73;;
4963;SDS011;2497;47.410;9.740;2023-03-01T01:27:23;22.70;;;10.50;;
4963;SDS011;2497;47.410;9.740;2023-03-01T01:29:52;22.13;;;9.90;;
4963;SDS011;2497;47.410;9.740;2023-03-01T01:32:34;20.90;;;8.40;;
4963;SDS011;2497;47.410;9.740;2023-03-01T01:35:03;22.30;;;9.13;;
4963;SDS011;2497;47.410;9.740;2023-03-01T01:37:30;24.77;;;9.60;;
4963;SDS011;2497;47.410;9.740;2023-03-01T01:39:58;20.40;;;8.90;;
4963;SDS011;2497;47.410;9.740;2023-03-01T01:42:28;21.13;;;8.63;;
4963;SDS011;2497;47.410;9.740;2023-03-01T01:47:59;19.10;;;8.47;;
4963;SDS011;2497;47.410;9.740;2023-03-01T01:50:32;19.53;;;8.00;;
4963;SDS011;2497;47.410;9.740;2023-03-01T01:53:05;13.30;;;8.30;;
4963;SDS011;2497;47.410;9.740;2023-03-01T01:55:35;22.93;;;8.07;;
4963;SDS011;2497;47.410;9.740;2023-03-01T01:58:07;22.95;;;9.00;;
4963;SDS011;2497;47.410;9.740;2023-03-01T02:00:37;20.70;;;9.63;;
4963;SDS011;2497;47.410;9.740;2023-03-01T02:03:06;17.30;;;8.63;;
4963;SDS011;2497;47.410;9.740;2023-03-01T02:05:40;20.33;;;8.83;;
4963;SDS011;2497;47.410;9.740;2023-03-01T02:08:13;16.47;;;8.87;;
4963;SDS011;2497;47.410;9.740;2023-03-01T02:10:42;19.27;;;8.90;;
4963;SDS011;2497;47.410;9.740;2023-03-01T02:13:11;19.70;;;8.87;;
4963;SDS011;2497;47.410;9.740;2023-03-01T02:15:39;23.10;;;8.98;;
4963;SDS011;2497;47.410;9.740;2023-03-01T02:18:09;28.52;;;9.18;;
4963;SDS011;2497;47.410;9.740;2023-03-01T02:20:40;23.03;;;9.43;;
4963;SDS011;2497;47.410;9.740;2023-03-01T02:23:17;24.53;;;9.93;;
4963;SDS011;2497;47.410;9.740;2023-03-01T02:25:47;22.13;;;8.30;;
4963;SDS011;2497;47.410;9.740;2023-03-01T02:28:27;24.30;;;9.10;;
4963;SDS011;2497;47.410;9.740;2023-03-01T02:30:56;20.57;;;9.03;;
4963;SDS011;2497;47.410;9.740;2023-03-01T02:33:41;21.77;;;9.20;;
4963;SDS011;2497;47.410;9.740;2023-03-01T02:36:10;23.00;;;9.73;;
4963;SDS011;2497;47.410;9.740;2023-03-01T02:38:41;26.77;;;9.30;;
4963;SDS011;2497;47.410;9.740;2023-03-01T02:41:09;23.80;;;9.33;;
4963;SDS011;2497;47.410;9.740;2023-03-01T02:43:40;24.27;;;10.57;;
4963;SDS011;2497;47.410;9.740;2023-03-01T02:46:14;27.33;;;10.53;;
4963;SDS011;2497;47.410;9.740;2023-03-01T02:48:43;23.77;;;9.40;;
4963;SDS011;2497;47.410;9.740;2023-03-01T02:51:22;28.23;;;11.23;;
4963;SDS011;2497;47.410;9.740;2023-03-01T02:54:01;26.93;;;10.17;;
4963;SDS011;2497;47.410;9.740;2023-03-01T02:56:36;26.23;;;10.33;;
4963;SDS011;2497;47.410;9.740;2023-03-01T02:59:05;26.67;;;8.40;;
4963;SDS011;2497;47.410;9.740;2023-03-01T03:01:32;27.57;;;10.20;;
4963;SDS011;2497;47.410;9.740;2023-03-01T03:04:03;30.53;;;10.20;;
4963;SDS011;2497;47.410;9.740;2023-03-01T03:06:31;21.80;;;9.70;;
4963;SDS011;2497;47.410;9.740;2023-03-01T03:09:01;19.97;;;8.97;;
4963;SDS011;2497;47.410;9.740;2023-03-01T03:11:30;23.77;;;9.17;;
4963;SDS011;2497;47.410;9.740;2023-03-01T03:13:57;28.13;;;9.37;;
4963;SDS011;2497;47.410;9.740;2023-03-01T03:16:26;17.50;;;8.20;;
4963;SDS011;2497;47.410;9.740;2023-03-01T03:18:54;27.87;;;9.73;;
4963;SDS011;2497;47.410;9.740;2023-03-01T03:21:30;25.83;;;10.37;;
4963;SDS011;2497;47.410;9.740;2023-03-01T03:23:57;24.37;;;10.33;;
4963;SDS011;2497;47.410;9.740;2023-03-01T03:26:24;18.80;;;8.20;;
4963;SDS011;2497;47.410;9.740;2023-03-01T03:28:52;21.70;;;9.93;;
4963;SDS011;2497;47.410;9.740;2023-03-01T03:31:19;23.47;;;10.50;;
4963;SDS011;2497;47.410;9.740;2023-03-01T03:33:47;24.37;;;10.50;;
4963;SDS011;2497;47.410;9.740;2023-03-01T03:36:15;26.57;;;10.20;;
4963;SDS011;2497;47.410;9.740;2023-03-01T03:38:43;22.57;;;10.80;;
4963;SDS011;2497;47.410;9.740;2023-03-01T03:41:11;21.03;;;9.03;;
4963;SDS011;2497;47.410;9.740;2023-03-01T03:43:39;24.80;;;10.30;;
4963;SDS011;2497;47.410;9.740;2023-03-01T03:46:08;21.27;;;10.10;;
4963;SDS011;2497;47.410;9.740;2023-03-01T03:48:36;26.57;;;10.67;;
4963;SDS011;2497;47.410;9.740;2023-03-01T03:51:06;28.70;;;11.00;;
4963;SDS011;2497;47.410;9.740;2023-03-01T03:53:36;19.10;;;9.13;;
4963;SDS011;2497;47.410;9.740;2023-03-01T03:56:04;33.30;;;12.07;;
4963;SDS011;2497;47.410;9.740;2023-03-01T03:58:31;21.27;;;9.83;;
4963;SDS011;2497;47.410;9.740;2023-03-01T04:00:59;27.63;;;10.93;;
4963;SDS011;2497;47.410;9.740;2023-03-01T04:03:27;25.63;;;12.00;;
4963;SDS011;2497;47.410;9.740;2023-03-01T04:05:57;27.60;;;11.73;;
4963;SDS011;2497;47.410;9.740;2023-03-01T04:08:26;30.23;;;11.50;;
4963;SDS011;2497;47.410;9.740;2023-03-01T04:10:57;25.43;;;10.70;;
4963;SDS011;2497;47.410;9.740;2023-03-01T04:13:46;23.93;;;11.20;;
4963;SDS011;2497;47.410;9.740;2023-03-01T04:16:13;31.07;;;11.80;;
4963;SDS011;2497;47.410;9.740;2023-03-01T04:18:40;30.53;;;10.80;;
4963;SDS011;2497;47.410;9.740;2023-03-01T04:21:07;28.70;;;10.67;;
4963;SDS011;2497;47.410;9.740;2023-03-01T04:23:37;27.60;;;11.70;;
4963;SDS011;2497;47.410;9.740;2023-03-01T04:26:05;26.90;;;11.20;;
4963;SDS011;2497;47.410;9.740;2023-03-01T04:28:33;33.47;;;11.60;;
4963;SDS011;2497;47.410;9.740;2023-03-01T04:31:06;25.83;;;11.00;;
4963;SDS011;2497;47.410;9.740;2023-03-01T04:33:39;33.00;;;11.90;;
4963;SDS011;2497;47.410;9.740;2023-03-01T04:36:07;30.30;;;12.10;;
4963;SDS011;2497;47.410;9.740;2023-03-01T04:38:35;24.07;;;10.37;;
4963;SDS011;2497;47.410;9.740;2023-03-01T04:41:05;27.30;;;9.97;;
4963;SDS011;2497;47.410;9.740;2023-03-01T04:43:33;21.77;;;9.70;;
4963;SDS011;2497;47.410;9.740;2023-03-01T04:46:00;29.13;;;10.60;;
4963;SDS011;2497;47.410;9.740;2023-03-01T04:48:29;27.40;;;10.40;;
4963;SDS011;2497;47.410;9.740;2023-03-01T04:50:57;24.97;;;9.30;;
4963;SDS011;2497;47.410;9.740;2023-03-01T04:53:25;28.57;;;10.47;;
4963;SDS011;2497;47.410;9.740;2023-03-01T04:55:55;26.00;;;10.87;;
4963;SDS011;2497;47.410;9.740;2023-03-01T04:58:23;21.10;;;10.07;;
4963;SDS011;2497;47.410;9.740;2023-03-01T05:00:50;17.50;;;8.97;;
4963;SDS011;2497;47.410;9.740;2023-03-01T05:03:17;22.07;;;10.17;;
4963;SDS011;2497;47.410;9.740;2023-03-01T05:05:45;20.38;;;8.75;;
4963;SDS011;2497;47.410;9.740;2023-03-01T05:08:15;27.80;;;10.23;;
4963;SDS011;2497;47.410;9.740;2023-03-01T05:10:43;24.37;;;9.60;;
4963;SDS011;2497;47.410;9.740;2023-03-01T05:13:13;23.53;;;9.43;;
4963;SDS011;2497;47.410;9.740;2023-03-01T05:15:46;20.83;;;9.70;;
4963;SDS011;2497;47.410;9.740;2023-03-01T05:18:14;25.27;;;9.87;;
4963;SDS011;2497;47.410;9.740;2023-03-01T05:20:41;20.50;;;9.10;;
4963;SDS011;2497;47.410;9.740;2023-03-01T05:23:10;23.73;;;9.27;;
4963;SDS011;2497;47.410;9.740;2023-03-01T05:25:37;22.83;;;8.70;;
4963;SDS011;2497;47.410;9.740;2023-03-01T05:28:05;24.57;;;9.30;;
4963;SDS011;2497;47.410;9.740;2023-03-01T05:30:36;22.03;;;9.33;;
4963;SDS011;2497;47.410;9.740;2023-03-01T05:33:05;33.20;;;9.50;;
4963;SDS011;2497;47.410;9.740;2023-03-01T05:35:38;30.40;;;11.50;;
4963;SDS011;2497;47.410;9.740;2023-03-01T05:38:06;20.23;;;7.77;;
4963;SDS011;2497;47.410;9.740;2023-03-01T05:40:34;29.20;;;10.77;;
4963;SDS011;2497;47.410;9.740;2023-03-01T05:43:01;27.23;;;10.40;;
4963;SDS011;2497;47.410;9.740;2023-03-01T05:45:30;29.13;;;10.10;;
4963;SDS011;2497;47.410;9.740;2023-03-01T05:47:59;22.63;;;9.40;;
4963;SDS011;2497;47.410;9.740;2023-03-01T05:50:28;22.83;;;10.27;;
4963;SDS011;2497;47.410;9.740;2023-03-01T05:52:58;24.83;;;9.30;;
4963;SDS011;2497;47.410;9.740;2023-03-01T05:55:27;27.83;;;10.23;;
4963;SDS011;2497;47.410;9.740;2023-03-01T05:57:55;27.50;;;14.70;;
4963;SDS011;2497;47.410;9.740;2023-03-01T06:00:24;40.60;;;16.50;;
4963;SDS011;2497;47.410;9.740;2023-03-01T06:02:53;27.47;;;11.67;;
4963;SDS011;2497;47.410;9.740;2023-03-01T06:05:22;25.37;;;9.57;;
4963;SDS011;2497;47.410;9.740;2023-03-01T06:07:49;23.70;;;10.53;;
4963;SDS011;2497;47.410;9.740;2023-03-01T06:10:18;27.50;;;11.13;;
4963;SDS011;2497;47.410;9.740;2023-03-01T06:12:47;27.13;;;10.87;;
4963;SDS011;2497;47.410;9.740;2023-03-01T06:15:14;30.67;;;13.20;;
4963;SDS011;2497;47.410;9.740;2023-03-01T06:17:43;34.67;;;12.25;;
4963;SDS011;2497;47.410;9.740;2023-03-01T06:20:12;29.17;;;10.87;;
4963;SDS011;2497;47.410;9.740;2023-03-01T06:22:44;21.60;;;9.83;;
4963;SDS011;2497;47.410;9.740;2023-03-01T06:25:12;21.70;;;10.10;;
4963;SDS011;2497;47.410;9.740;2023-03-01T06:27:41;35.33;;;12.00;;
4963;SDS011;2497;47.410;9.740;2023-03-01T06:30:09;28.48;;;12.35;;
4963;SDS011;2497;47.410;9.740;2023-03-01T06:32:37;26.50;;;10.37;;
4963;SDS011;2497;47.410;9.740;2023-03-01T06:35:07;29.57;;;10.80;;
4963;SDS011;2497;47.410;9.740;2023-03-01T06:37:35;25.63;;;9.87;;
4963;SDS011;2497;47.410;9.740;2023-03-01T06:40:04;29.50;;;10.97;;
4963;SDS011;2497;47.410;9.740;2023-03-01T06:42:33;25.53;;;9.90;;
4963;SDS011;2497;47.410;9.740;2023-03-01T06:45:00;18.67;;;10.00;;
4963;SDS011;2497;47.410;9.740;2023-03-01T06:47:28;22.33;;;9.73;;
4963;SDS011;2497;47.410;9.740;2023-03-01T06:49:55;24.97;;;8.93;;
4963;SDS011;2497;47.410;9.740;2023-03-01T06:52:22;24.00;;;9.93;;
4963;SDS011;2497;47.410;9.740;2023-03-01T06:54:49;28.70;;;9.63;;
4963;SDS011;2497;47.410;9.740;2023-03-01T06:57:17;22.00;;;8.87;;
4963;SDS011;2497;47.410;9.740;2023-03-01T06:59:44;23.53;;;9.90;;
4963;SDS011;2497;47.410;9.740;2023-03-01T07:02:13;30.20;;;11.40;;
4963;SDS011;2497;47.410;9.740;2023-03-01T07:04:41;21.00;;;9.87;;
4963;SDS011;2497;47.410;9.740;2023-03-01T07:07:08;21.80;;;9.07;;
4963;SDS011;2497;47.410;9.740;2023-03-01T07:09:36;26.50;;;11.37;;
4963;SDS011;2497;47.410;9.740;2023-03-01T07:12:03;25.63;;;10.77;;
4963;SDS011;2497;47.410;9.740;2023-03-01T07:14:32;23.30;;;9.90;;
4963;SDS011;2497;47.410;9.740;2023-03-01T07:16:59;31.13;;;11.47;;
4963;SDS011;2497;47.410;9.740;2023-03-01T07:19:27;25.90;;;9.43;;
4963;SDS011;2497;47.410;9.740;2023-03-01T07:21:54;22.40;;;10.07;;
4963;SDS011;2497;47.410;9.740;2023-03-01T07:24:22;21.47;;;8.90;;
4963;SDS011;2497;47.410;9.740;2023-03-01T07:26:49;23.90;;;9.07;;
4963;SDS011;2497;47.410;9.740;2023-03-01T07:29:18;22.17;;;10.80;;
4963;SDS011;2497;47.410;9.740;2023-03-01T07:31:47;26.27;;;11.17;;
4963;SDS011;2497;47.410;9.740;2023-03-01T07:34:14;32.43;;;11.40;;
4963;SDS011;2497;47.410;9.740;2023-03-01T07:36:41;30.90;;;11.57;;
4963;SDS011;2497;47.410;9.740;2023-03-01T07:39:10;19.70;;;10.20;;
4963;SDS011;2497;47.410;9.740;2023-03-01T07:41:38;24.90;;;9.50;;
4963;SDS011;2497;47.410;9.740;2023-03-01T07:44:05;23.27;;;11.10;;
4963;SDS011;2497;47.410;9.740;2023-03-01T07:46:32;25.43;;;11.40;;
4963;SDS011;2497;47.410;9.740;2023-03-01T07:49:00;27.40;;;10.10;;
4963;SDS011;2497;47.410;9.740;2023-03-01T07:51:27;23.40;;;11.20;;
4963;SDS011;2497;47.410;9.740;2023-03-01T07:53:55;24.00;;;10.07;;
4963;SDS011;2497;47.410;9.740;2023-03-01T07:56:22;26.60;;;9.90;;
4963;SDS011;2497;47.410;9.740;2023-03-01T07:58:49;21.60;;;9.93;;
4963;SDS011;2497;47.410;9.740;2023-03-01T08:01:17;26.10;;;10.20;;
4963;SDS011;2497;47.410;9.740;2023-03-01T08:03:45;30.17;;;10.90;;
4963;SDS011;2497;47.410;9.740;2023-03-01T08:06:14;24.27;;;11.10;;
4963;SDS011;2497;47.410;9.740;2023-03-01T08:08:43;26.83;;;11.23;;
4963;SDS011;2497;47.410;9.740;2023-03-01T08:11:12;29.47;;;11.33;;
4963;SDS011;2497;47.410;9.740;2023-03-01T08:13:39;23.10;;;9.67;;
4963;SDS011;2497;47.410;9.740;2023-03-01T08:16:08;28.20;;;11.20;;
4963;SDS011;2497;47.410;9.740;2023-03-01T08:18:37;34.13;;;11.10;;
4963;SDS011;2497;47.410;9.740;2023-03-01T08:21:04;27.57;;;11.07;;
4963;SDS011;2497;47.410;9.740;2023-03-01T08:23:34;27.73;;;11.20;;
4963;SDS011;2497;47.410;9.740;2023-03-01T08:26:05;27.97;;;11.80;;
4963;SDS011;2497;47.410;9.740;2023-03-01T08:28:33;30.37;;;12.03;;
4963;SDS011;2497;47.410;9.740;2023-03-01T08:31:01;33.10;;;12.10;;
4963;SDS011;2497;47.410;9.740;2023-03-01T08:33:28;25.83;;;10.43;;
4963;SDS011;2497;47.410;9.740;2023-03-01T08:36:02;27.93;;;12.00;;
4963;SDS011;2497;47.410;9.740;2023-03-01T08:38:31;30.53;;;13.53;;
4963;SDS011;2497;47.410;9.740;2023-03-01T08:41:00;24.40;;;11.73;;
4963;SDS011;2497;47.410;9.740;2023-03-01T08:43:27;24.83;;;11.50;;
4963;SDS011;2497;47.410;9.740;2023-03-01T08:45:55;26.97;;;11.77;;
4963;SDS011;2497;47.410;9.740;2023-03-01T08:48:22;28.40;;;12.07;;
4963;SDS011;2497;47.410;9.740;2023-03-01T08:50:50;31.97;;;12.17;;
4963;SDS011;2497;47.410;9.740;2023-03-01T08:53:17;30.70;;;12.30;;
4963;SDS011;2497;47.410;9.740;2023-03-01T08:55:45;31.73;;;13.80;;
4963;SDS011;2497;47.410;9.740;2023-03-01T08:58:13;27.37;;;11.40;;
4963;SDS011;2497;47.410;9.740;2023-03-01T09:00:40;27.93;;;12.57;;
4963;SDS011;2497;47.410;9.740;2023-03-01T09:03:07;28.43;;;11.83;;
4963;SDS011;2497;47.410;9.740;2023-03-01T09:05:34;26.10;;;10.80;;
4963;SDS011;2497;47.410;9.740;2023-03-01T09:08:02;34.23;;;12.03;;
4963;SDS011;2497;47.410;9.740;2023-03-01T09:10:29;29.00;;;12.63;;
4963;SDS011;2497;47.410;9.740;2023-03-01T09:12:57;31.20;;;11.77;;
4963;SDS011;2497;47.410;9.740;2023-03-01T09:15:24;32.87;;;13.20;;
4963;SDS011;2497;47.410;9.740;2023-03-01T09:17:51;23.67;;;12.60;;
4963;SDS011;2497;47.410;9.740;2023-03-01T09:20:19;33.17;;;13.27;;
4963;SDS011;2497;47.410;9.740;2023-03-01T09:22:46;27.07;;;11.53;;
4963;SDS011;2497;47.410;9.740;2023-03-01T09:25:13;29.53;;;12.00;;
4963;SDS011;2497;47.410;9.740;2023-03-01T09:27:41;28.07;;;11.80;;
4963;SDS011;2497;47.410;9.740;2023-03-01T09:30:10;25.67;;;11.20;;
4963;SDS011;2497;47.410;9.740;2023-03-01T09:32:38;28.70;;;11.90;;
4963;SDS011;2497;47.410;9.740;2023-03-01T09:35:08;31.00;;;10.60;;
4963;SDS011;2497;47.410;9.740;2023-03-01T09:37:35;26.60;;;10.80;;
4963;SDS011;2497;47.410;9.740;2023-03-01T09:40:03;28.00;;;11.40;;
4963;SDS011;2497;47.410;9.740;2023-03-01T09:42:31;24.77;;;11.30;;
4963;SDS011;2497;47.410;9.740;2023-03-01T09:45:01;29.63;;;11.03;;
4963;SDS011;2497;47.410;9.740;2023-03-01T09:47:35;29.10;;;10.63;;
4963;SDS011;2497;47.410;9.740;2023-03-01T09:50:04;29.67;;;12.63;;
4963;SDS011;2497;47.410;9.740;2023-03-01T09:52:39;28.50;;;11.50;;
4963;SDS011;2497;47.410;9.740;2023-03-01T09:55:09;30.90;;;12.53;;
4963;SDS011;2497;47.410;9.740;2023-03-01T09:57:41;36.90;;;12.00;;
4963;SDS011;2497;47.410;9.740;2023-03-01T10:00:19;33.03;;;12.07;;
4963;SDS011;2497;47.410;9.740;2023-03-01T10:03:03;33.43;;;11.70;;
4963;SDS011;2497;47.410;9.740;2023-03-01T10:05:41;30.10;;;11.57;;
4963;SDS011;2497;47.410;9.740;2023-03-01T10:08:19;28.57;;;12.13;;
4963;SDS011;2497;47.410;9.740;2023-03-01T10:10:54;34.80;;;14.07;;
4963;SDS011;2497;47.410;9.740;2023-03-01T10:13:23;32.20;;;11.80;;
4963;SDS011;2497;47.410;9.740;2023-03-01T10:15:55;34.27;;;13.10;;
4963;SDS011;2497;47.410;9.740;2023-03-01T10:18:27;32.03;;;12.10;;
4963;SDS011;2497;47.410;9.740;2023-03-01T10:20:58;27.10;;;12.67;;
4963;SDS011;2497;47.410;9.740;2023-03-01T10:23:28;31.90;;;13.37;;
4963;SDS011;2497;47.410;9.740;2023-03-01T10:26:07;32.00;;;12.57;;
4963;SDS011;2497;47.410;9.740;2023-03-01T10:28:47;31.40;;;13.00;;
4963;SDS011;2497;47.410;9.740;2023-03-01T10:31:24;31.30;;;12.53;;
4963;SDS011;2497;47.410;9.740;2023-03-01T10:33:55;35.87;;;13.17;;
4963;SDS011;2497;47.410;9.740;2023-03-01T10:36:24;25.10;;;11.43;;
4963;SDS011;2497;47.410;9.740;2023-03-01T10:38:51;29.00;;;12.43;;
4963;SDS011;2497;47.410;9.740;2023-03-01T10:41:22;24.13;;;11.93;;
4963;SDS011;2497;47.410;9.740;2023-03-01T10:43:52;25.53;;;11.60;;
4963;SDS011;2497;47.410;9.740;2023-03-01T10:46:24;24.30;;;11.83;;
4963;SDS011;2497;47.410;9.740;2023-03-01T10:49:13;29.00;;;11.20;;
4963;SDS011;2497;47.410;9.740;2023-03-01T10:51:46;23.33;;;10.70;;
4963;SDS011;2497;47.410;9.740;2023-03-01T10:54:18;23.10;;;10.63;;
4963;SDS011;2497;47.410;9.740;2023-03-01T10:56:55;26.33;;;11.50;;
4963;SDS011;2497;47.410;9.740;2023-03-01T10:59:26;27.47;;;10.80;;
4963;SDS011;2497;47.410;9.740;2023-03-01T11:02:01;26.47;;;12.23;;
4963;SDS011;2497;47.410;9.740;2023-03-01T11:04:35;28.73;;;12.00;;
4963;SDS011;2497;47.410;9.740;2023-03-01T11:07:02;29.33;;;11.63;;
4963;SDS011;2497;47.410;9.740;2023-03-01T11:09:31;24.83;;;10.40;;
4963;SDS011;2497;47.410;9.740;2023-03-01T11:12:03;23.27;;;11.23;;
4963;SDS011;2497;47.410;9.740;2023-03-01T11:14:39;29.13;;;12.10;;
4963;SDS011;2497;47.410;9.740;2023-03-01T11:17:15;22.53;;;10.63;;
4963;SDS011;2497;47.410;9.740;2023-03-01T11:19:55;31.10;;;12.43;;
4963;SDS011;2497;47.410;9.740;2023-03-01T11:22:29;27.97;;;12.10;;
4963;SDS011;2497;47.410;9.740;2023-03-01T11:24:58;28.30;;;12.43;;
4963;SDS011;2497;47.410;9.740;2023-03-01T11:27:27;30.47;;;12.70;;
4963;SDS011;2497;47.410;9.740;2023-03-01T11:29:58;22.57;;;10.40;;
4963;SDS011;2497;47.410;9.740;2023-03-01T11:32:34;32.00;;;11.57;;
4963;SDS011;2497;47.410;9.740;2023-03-01T11:35:10;30.50;;;10.77;;
4963;SDS011;2497;47.410;9.740;2023-03-01T11:37:46;30.10;;;10.93;;
4963;SDS011;2497;47.410;9.740;2023-03-01T11:40:27;25.23;;;11.33;;
4963;SDS011;2497;47.410;9.740;2023-03-01T11:43:02;21.37;;;9.43;;
4963;SDS011;2497;47.410;9.740;2023-03-01T11:45:45;23.87;;;11.00;;
4963;SDS011;2497;47.410;9.740;2023-03-01T11:48:34;25.10;;;11.87;;
4963;SDS011;2497;47.410;9.740;2023-03-01T11:51:15;28.30;;;12.50;;
4963;SDS011;2497;47.410;9.740;2023-03-01T11:53:51;23.50;;;11.00;;
4963;SDS011;2497;47.410;9.740;2023-03-01T11:56:31;19.73;;;10.17;;
4963;SDS011;2497;47.410;9.740;2023-03-01T11:59:19;23.00;;;9.40;;
4963;SDS011;2497;47.410;9.740;2023-03-01T12:02:02;20.23;;;9.37;;
4963;SDS011;2497;47.410;9.740;2023-03-01T12:04:59;20.37;;;10.27;;
4963;SDS011;2497;47.410;9.740;2023-03-01T12:07:44;20.67;;;10.57;;
4963;SDS011;2497;47.410;9.740;2023-03-01T12:10:20;20.20;;;9.37;;
4963;SDS011;2497;47.410;9.740;2023-03-01T12:16:06;22.50;;;10.30;;
4963;SDS011;2497;47.410;9.740;2023-03-01T12:18:48;19.57;;;9.20;;
4963;SDS011;2497;47.410;9.740;2023-03-01T12:21:27;27.50;;;10.40;;
4963;SDS011;2497;47.410;9.740;2023-03-01T12:24:14;19.57;;;10.00;;
4963;SDS011;2497;47.410;9.740;2023-03-01T12:26:58;25.60;;;12.93;;
4963;SDS011;2497;47.410;9.740;2023-03-01T12:29:38;23.67;;;11.40;;
4963;SDS011;2497;47.410;9.740;2023-03-01T12:32:15;28.83;;;12.70;;
4963;SDS011;2497;47.410;9.740;2023-03-01T12:37:54;24.53;;;11.10;;
4963;SDS011;2497;47.410;9.740;2023-03-01T12:40:31;26.07;;;12.20;;
4963;SDS011;2497;47.410;9.740;2023-03-01T12:43:09;26.83;;;11.57;;
4963;SDS011;2497;47.410;9.740;2023-03-01T12:48:49;27.37;;;11.40;;
4963;SDS011;2497;47.410;9.740;2023-03-01T12:51:23;24.67;;;11.70;;
4963;SDS011;2497;47.410;9.740;2023-03-01T12:53:53;26.80;;;10.40;;
4963;SDS011;2497;47.410;9.740;2023-03-01T12:56:24;25.30;;;11.17;;
4963;SDS011;2497;47.410;9.740;2023-03-01T12:58:57;25.30;;;11.40;;
4963;SDS011;2497;47.410;9.740;2023-03-01T13:01:32;25.83;;;11.87;;
4963;SDS011;2497;47.410;9.740;2023-03-01T13:04:08;24.03;;;12.50;;
4963;SDS011;2497;47.410;9.740;2023-03-01T13:06:46;29.00;;;13.13;;
4963;SDS011;2497;47.410;9.740;2023-03-01T13:09:22;31.47;;;12.57;;
4963;SDS011;2497;47.410;9.740;2023-03-01T13:11:58;27.60;;;12.00;;
4963;SDS011;2497;47.410;9.740;2023-03-01T13:14:35;26.70;;;11.70;;
4963;SDS011;2497;47.410;9.740;2023-03-01T13:17:04;21.13;;;10.73;;
4963;SDS011;2497;47.410;9.740;2023-03-01T13:19:55;27.70;;;11.50;;
4963;SDS011;2497;47.410;9.740;2023-03-01T13:22:28;26.60;;;11.80;;
4963;SDS011;2497;47.410;9.740;2023-03-01T13:25:01;28.83;;;11.90;;
4963;SDS011;2497;47.410;9.740;2023-03-01T13:27:41;19.50;;;10.37;;
4963;SDS011;2497;47.410;9.740;2023-03-01T13:36:01;32.57;;;13.03;;
4963;SDS011;2497;47.410;9.740;2023-03-01T13:38:38;28.77;;;11.67;;
4963;SDS011;2497;47.410;9.740;2023-03-01T13:41:12;27.13;;;12.40;;
4963;SDS011;2497;47.410;9.740;2023-03-01T13:43:42;30.47;;;13.53;;
4963;SDS011;2497;47.410;9.740;2023-03-01T13:46:15;26.53;;;12.13;;
4963;SDS011;2497;47.410;9.740;2023-03-01T13:48:47;26.30;;;11.10;;
4963;SDS011;2497;47.410;9.740;2023-03-01T13:51:20;28.60;;;12.43;;
4963;SDS011;2497;47.410;9.740;2023-03-01T13:53:50;29.17;;;13.73;;
4963;SDS011;2497;47.410;9.740;2023-03-01T13:56:20;35.07;;;13.77;;
4963;SDS011;2497;47.410;9.740;2023-03-01T13:58:53;22.97;;;11.50;;
4963;SDS011;2497;47.410;9.740;2023-03-01T14:01:24;20.17;;;11.70;;
4963;SDS011;2497;47.410;9.740;2023-03-01T14:03:52;30.03;;;12.40;;
4963;SDS011;2497;47.410;9.740;2023-03-01T14:06:21;28.87;;;12.50;;
4963;SDS011;2497;47.410;9.740;2023-03-01T14:08:51;25.23;;;11.77;;
4963;SDS011;2497;47.410;9.740;2023-03-01T14:14:36;27.17;;;11.90;;
4963;SDS011;2497;47.410;9.740;2023-03-01T14:17:22;25.77;;;11.97;;
4963;SDS011;2497;47.410;9.740;2023-03-01T14:20:07;34.33;;;12.23;;
4963;SDS011;2497;47.410;9.740;2023-03-01T14:22:40;25.43;;;12.23;;
4963;SDS011;2497;47.410;9.740;2023-03-01T14:25:17;28.63;;;12.77;;
4963;SDS011;2497;47.410;9.740;2023-03-01T14:27:51;30.90;;;12.70;;
4963;SDS011;2497;47.410;9.740;2023-03-01T14:30:23;28.83;;;11.53;;
4963;SDS011;2497;47.410;9.740;2023-03-01T14:32:53;27.73;;;13.70;;
4963;SDS011;2497;47.410;9.740;2023-03-01T14:35:23;30.50;;;11.60;;
4963;SDS011;2497;47.410;9.740;2023-03-01T14:37:51;30.90;;;12.97;;
4963;SDS011;2497;47.410;9.740;2023-03-01T14:40:22;28.67;;;13.33;;
4963;SDS011;2497;47.410;9.740;2023-03-01T14:42:53;34.40;;;15.17;;
4963;SDS011;2497;47.410;9.740;2023-03-01T14:45:24;35.17;;;13.73;;
4963;SDS011;2497;47.410;9.740;2023-03-01T14:47:53;37.20;;;14.30;;
4963;SDS011;2497;47.410;9.740;2023-03-01T14:50:26;32.50;;;12.70;;
4963;SDS011;2497;47.410;9.740;2023-03-01T14:52:55;29.37;;;14.17;;
4963;SDS011;2497;47.410;9.740;2023-03-01T14:55:27;31.77;;;12.83;;
4963;SDS011;2497;47.410;9.740;2023-03-01T14:57:57;34.23;;;13.00;;
4963;SDS011;2497;47.410;9.740;2023-03-01T15:00:27;32.63;;;13.23;;
4963;SDS011;2497;47.410;9.740;2023-03-01T15:02:57;30.37;;;13.83;;
4963;SDS011;2497;47.410;9.740;2023-03-01T15:05:29;33.23;;;15.43;;
4963;SDS011;2497;47.410;9.740;2023-03-01T15:07:57;33.40;;;14.17;;
4963;SDS011;2497;47.410;9.740;2023-03-01T15:10:27;30.63;;;13.93;;
4963;SDS011;2497;47.410;9.740;2023-03-01T15:12:56;26.57;;;10.63;;
4963;SDS011;2497;47.410;9.740;2023-03-01T15:15:39;31.53;;;13.33;;
4963;SDS011;2497;47.410;9.740;2023-03-01T15:18:16;30.67;;;13.70;;
4963;SDS011;2497;47.410;9.740;2023-03-01T15:20:45;29.43;;;13.07;;
4963;SDS011;2497;47.410;9.740;2023-03-01T15:23:17;34.53;;;13.90;;
4963;SDS011;2497;47.410;9.740;2023-03-01T15:25:49;35.50;;;12.77;;
4963;SDS011;2497;47.410;9.740;2023-03-01T15:28:23;40.00;;;15.87;;
4963;SDS011;2497;47.410;9.740;2023-03-01T15:30:54;36.47;;;13.47;;
4963;SDS011;2497;47.410;9.740;2023-03-01T15:33:31;36.87;;;14.43;;
4963;SDS011;2497;47.410;9.740;2023-03-01T15:36:01;40.20;;;14.73;;
4963;SDS011;2497;47.410;9.740;2023-03-01T15:38:33;35.73;;;13.53;;
4963;SDS011;2497;47.410;9.740;2023-03-01T15:41:04;34.60;;;13.60;;